Lawson Army Air Field (Fort Benning) Fort Benning(Columbus) US
ICAO: KLSF
IATA: LSF
Category: Medium
Scheduled Services: No

Elevation: 232 ft
TransAlt. 18000 ft.

Airport Communications:
ATLANTA APP/DEP:125.5
ATIS:134.375
CLNC DEL:121.7
GND:121.05
PMSV METRO:34.32
PTD/BASE OPS:134.1
TWR:119.05

KLSF Zoom In..

Runways:

(A) RW 15 length 10004 ft width 150 ft
---- / hdg 147

(B) RW 33 length 10004 ft width 150 ft
ILS 110.70 / hdg 327

Location; KLSF
Day. 14 / Time. 13.56 Zulu
* Altimeter: 30.04
* Temperature: 24° c. 75.2°f.
* Wind from: 000° Speed 00 kn.
Dewpoint: 24° c.
Visibility: 10 Statute Miles.
Clouds: Overcast 400 ft.

KLSF 141356Z AUTO 00000KT 10SM OVC004 24/24 A3004 RMK AO2 CIG 003 RWY33 SLP176 T02440244


Wind - Calm.

 
 
jpsmedia.com for Web Design worldairports.se 2018   terms of use